createdAt,value
2018-04-30T00:01:49.452Z,73.27
2018-04-30T00:04:20.550Z,73.02
2018-04-30T00:06:50.817Z,72.74
2018-04-30T00:09:21.262Z,72.69
2018-04-30T00:11:52.443Z,72.71
2018-04-30T00:14:22.663Z,72.45
2018-04-30T00:16:53.095Z,72.29
2018-04-30T00:19:23.192Z,72.08
2018-04-30T00:21:53.492Z,72.29
2018-04-30T00:24:24.001Z,72.15
2018-04-30T00:26:54.188Z,72.28
2018-04-30T00:29:24.557Z,72.27
2018-04-30T00:31:55.201Z,71.91
2018-04-30T00:34:25.439Z,72.33
2018-04-30T00:36:55.575Z,72.17
2018-04-30T00:39:26.101Z,72.00
2018-04-30T00:41:56.265Z,72.10
2018-04-30T00:44:26.468Z,72.17
2018-04-30T00:46:57.260Z,72.57
2018-04-30T00:49:27.421Z,73.03
2018-04-30T00:51:57.752Z,73.19
2018-04-30T00:54:36.893Z,72.61
2018-04-30T00:57:07.117Z,72.27
2018-04-30T00:59:38.008Z,72.67
2018-04-30T01:02:08.489Z,72.95
2018-04-30T01:04:38.707Z,72.62
2018-04-30T01:07:09.254Z,72.21
2018-04-30T01:09:39.594Z,71.61
2018-04-30T01:12:10.138Z,71.43
2018-04-30T01:14:40.463Z,71.79
2018-04-30T01:17:11.010Z,71.27
2018-04-30T01:19:42.229Z,71.06
2018-04-30T01:22:12.481Z,71.29
2018-04-30T01:24:42.860Z,71.21
2018-04-30T01:27:13.244Z,70.90
2018-04-30T01:29:43.638Z,71.33
2018-04-30T01:32:14.578Z,71.51
2018-04-30T01:34:45.158Z,70.69
2018-04-30T01:37:15.407Z,70.32
2018-04-30T01:39:45.516Z,70.65
2018-04-30T01:42:15.748Z,70.09
2018-04-30T01:44:46.102Z,69.81
2018-04-30T01:47:16.776Z,69.65
2018-04-30T01:49:47.304Z,69.29
2018-04-30T01:52:17.838Z,68.80
2018-04-30T01:54:48.523Z,68.84
2018-04-30T01:57:18.964Z,68.60
2018-04-30T01:59:49.241Z,68.33
2018-04-30T02:02:19.301Z,68.38
2018-04-30T02:04:49.515Z,67.92
2018-04-30T02:07:27.475Z,67.76
2018-04-30T02:12:55.289Z,67.90
2018-04-30T02:15:26.404Z,67.93
2018-04-30T02:17:58.366Z,67.70
2018-04-30T02:20:28.626Z,67.67
2018-04-30T02:23:00.230Z,68.48
2018-04-30T02:25:31.209Z,68.66
2018-04-30T02:28:02.598Z,68.79
2018-04-30T02:30:33.070Z,68.72
2018-04-30T02:33:04.103Z,68.86
2018-04-30T02:35:39.067Z,68.57
2018-04-30T02:38:14.224Z,68.99
2018-04-30T02:40:45.317Z,69.46
2018-04-30T02:43:16.145Z,70.04
2018-04-30T02:45:46.843Z,70.05
2018-04-30T02:48:17.129Z,70.49
2018-04-30T02:50:47.657Z,70.65
2018-04-30T02:53:18.533Z,70.67
2018-04-30T02:55:49.415Z,70.67
2018-04-30T02:58:19.651Z,70.73
2018-04-30T03:00:50.109Z,70.85
2018-04-30T03:03:20.279Z,71.21
2018-04-30T03:05:50.450Z,71.01
2018-04-30T03:08:21.007Z,70.86
2018-04-30T03:10:51.750Z,70.98
2018-04-30T03:13:21.870Z,70.76
2018-04-30T03:15:52.181Z,70.78
2018-04-30T03:18:22.488Z,71.02
2018-04-30T03:20:52.568Z,71.48
2018-04-30T03:23:22.826Z,71.51
2018-04-30T03:25:53.222Z,71.58
2018-04-30T03:28:23.395Z,71.80
2018-04-30T03:30:55.207Z,71.87
2018-04-30T03:33:25.390Z,72.14
2018-04-30T03:35:55.822Z,71.67
2018-04-30T03:40:51.928Z,71.20
2018-04-30T03:43:22.187Z,71.36
2018-04-30T03:45:54.836Z,71.25
2018-04-30T03:48:24.978Z,71.34
2018-04-30T03:50:55.995Z,71.60
2018-04-30T03:53:26.257Z,71.76
2018-04-30T03:55:56.985Z,71.92
2018-04-30T03:58:27.139Z,71.96
2018-04-30T04:02:10.872Z,72.16
2018-04-30T04:06:56.229Z,72.31
2018-04-30T04:09:26.722Z,72.86
2018-04-30T04:14:31.761Z,73.28
2018-04-30T04:17:02.245Z,73.18
2018-04-30T04:19:33.943Z,72.89
2018-04-30T04:22:13.198Z,72.40
2018-04-30T04:24:43.600Z,72.13
2018-04-30T04:27:15.164Z,72.29
2018-04-30T04:29:45.459Z,72.25
2018-04-30T04:32:16.192Z,72.37
2018-04-30T04:34:46.763Z,72.45
2018-04-30T04:37:17.009Z,73.05
2018-04-30T04:39:48.202Z,73.53
2018-04-30T04:42:18.545Z,72.94
2018-04-30T04:44:49.018Z,72.63
2018-04-30T04:47:19.996Z,72.59
2018-04-30T04:49:50.551Z,72.17
2018-04-30T04:52:20.934Z,72.17
2018-04-30T04:54:51.543Z,72.70
2018-04-30T04:57:21.978Z,72.85
2018-04-30T04:59:52.411Z,72.98
2018-04-30T05:02:23.506Z,72.81
2018-04-30T05:04:54.205Z,72.70
2018-04-30T05:07:25.250Z,73.30
2018-04-30T05:09:56.308Z,72.77
2018-04-30T05:12:26.805Z,72.33
2018-04-30T05:14:57.458Z,71.91
2018-04-30T05:17:28.417Z,71.58
2018-04-30T05:20:02.871Z,71.10
2018-04-30T05:22:34.097Z,70.74
2018-04-30T05:25:05.066Z,70.87
2018-04-30T05:27:35.621Z,70.47
2018-04-30T05:30:08.094Z,69.78
2018-04-30T05:32:38.866Z,69.72
2018-04-30T05:35:10.139Z,69.47
2018-04-30T05:37:40.664Z,69.39
2018-04-30T05:40:10.932Z,68.96
2018-04-30T05:42:42.258Z,69.29
2018-04-30T05:45:40.785Z,69.64
2018-04-30T05:48:11.636Z,69.83
2018-04-30T05:51:06.422Z,69.72
2018-04-30T05:53:37.429Z,69.80
2018-04-30T05:56:07.829Z,70.05
2018-04-30T05:58:41.218Z,69.65
2018-04-30T06:01:12.645Z,69.97
2018-04-30T06:03:44.546Z,70.19
2018-04-30T06:06:17.441Z,69.87
2018-04-30T06:08:48.171Z,69.35
2018-04-30T06:11:19.779Z,68.79
2018-04-30T06:13:51.002Z,68.52
2018-04-30T06:16:21.819Z,68.93
2018-04-30T06:18:54.866Z,68.92
2018-04-30T06:21:26.632Z,68.67
2018-04-30T06:23:58.305Z,68.67
2018-04-30T06:26:30.230Z,68.89
2018-04-30T06:29:01.528Z,69.14
2018-04-30T06:31:33.065Z,69.15
2018-04-30T06:34:03.465Z,69.43
2018-04-30T06:36:34.462Z,69.81
2018-04-30T06:39:08.493Z,69.78
2018-04-30T06:41:39.431Z,69.81
2018-04-30T06:44:10.102Z,70.02
2018-04-30T06:46:40.459Z,70.42
2018-04-30T06:49:11.047Z,69.92
2018-04-30T06:51:51.476Z,70.54
2018-04-30T06:54:23.670Z,70.37
2018-04-30T06:56:54.083Z,70.64
2018-04-30T06:59:25.843Z,70.82
2018-04-30T07:02:04.366Z,71.17
2018-04-30T07:04:39.458Z,70.94
2018-04-30T07:07:10.449Z,70.72
2018-04-30T07:09:41.630Z,70.56
2018-04-30T07:12:12.420Z,70.84
2018-04-30T07:14:43.072Z,71.03
2018-04-30T07:17:15.140Z,71.70
2018-04-30T07:19:45.831Z,71.50
2018-04-30T07:22:16.111Z,71.29
2018-04-30T07:24:46.796Z,71.84
2018-04-30T07:27:17.466Z,72.73
2018-04-30T07:29:48.219Z,71.27
2018-04-30T07:32:18.923Z,71.17
2018-04-30T07:34:49.236Z,71.01
2018-04-30T07:37:26.992Z,70.98
2018-04-30T07:39:57.336Z,70.55
2018-04-30T07:42:29.290Z,70.52
2018-04-30T07:45:00.637Z,70.63
2018-04-30T07:52:32.371Z,70.73
2018-04-30T07:55:02.634Z,69.59
2018-04-30T07:57:35.087Z,69.69
2018-04-30T08:00:10.519Z,69.10
2018-04-30T08:02:46.539Z,68.67
2018-04-30T08:05:20.730Z,67.94
2018-04-30T08:08:08.681Z,67.26
2018-04-30T08:10:45.549Z,66.96
2018-04-30T08:13:23.758Z,67.84
2018-04-30T08:15:58.373Z,68.32
2018-04-30T08:18:28.530Z,68.19
2018-04-30T08:21:00.104Z,67.82
2018-04-30T08:23:36.422Z,67.86
2018-04-30T08:26:06.850Z,67.18
2018-04-30T08:28:37.271Z,67.63
2018-04-30T08:31:07.811Z,66.37
2018-04-30T08:33:37.987Z,67.88
2018-04-30T08:36:09.921Z,67.33
2018-04-30T08:38:40.403Z,67.41
2018-04-30T08:41:11.037Z,67.39
2018-04-30T08:43:42.381Z,66.97
2018-04-30T08:46:13.245Z,66.80
2018-04-30T08:48:43.937Z,64.69
2018-04-30T08:51:14.590Z,64.20
2018-04-30T08:53:44.860Z,63.81
2018-04-30T08:56:15.925Z,63.20
2018-04-30T08:58:54.801Z,63.00
2018-04-30T09:01:29.243Z,61.92
2018-04-30T09:04:01.155Z,61.30
2018-04-30T09:06:35.360Z,61.81
2018-04-30T09:09:06.709Z,62.55
2018-04-30T09:11:50.751Z,62.03
2018-04-30T09:14:29.152Z,61.75
2018-04-30T09:17:05.996Z,61.45
2018-04-30T09:19:42.122Z,61.91
2018-04-30T09:22:15.376Z,61.73
2018-04-30T09:24:47.089Z,61.37
2018-04-30T09:27:17.686Z,61.18
2018-04-30T09:29:50.094Z,60.26
2018-04-30T09:32:21.951Z,60.38
2018-04-30T09:34:52.274Z,59.56
2018-04-30T09:37:26.986Z,60.50
2018-04-30T09:39:58.028Z,58.95
2018-04-30T09:42:29.786Z,59.01
2018-04-30T09:45:03.756Z,57.42
2018-04-30T09:47:35.788Z,57.18
2018-04-30T09:50:09.018Z,55.87
2018-04-30T09:52:50.690Z,55.14
2018-04-30T10:00:43.398Z,55.83
2018-04-30T10:03:22.421Z,56.53
2018-04-30T10:05:55.034Z,55.20
2018-04-30T10:08:27.585Z,54.07
2018-04-30T10:14:08.938Z,54.43
2018-04-30T10:16:50.961Z,53.28
2018-04-30T10:19:25.115Z,51.89
2018-04-30T10:21:56.914Z,55.29
2018-04-30T10:24:27.999Z,54.79
2018-04-30T10:27:00.024Z,53.08
2018-04-30T10:29:31.197Z,53.01
2018-04-30T10:32:03.489Z,52.66
2018-04-30T10:34:35.199Z,54.02
2018-04-30T10:37:09.353Z,53.38
2018-04-30T10:39:40.705Z,54.06
2018-04-30T10:42:12.383Z,55.05
2018-04-30T10:44:50.698Z,54.49
2018-04-30T10:47:21.941Z,54.54
2018-04-30T10:50:01.220Z,53.57
2018-04-30T10:55:45.132Z,52.75
2018-04-30T10:58:18.785Z,52.41
2018-04-30T11:03:55.667Z,51.86
2018-04-30T11:06:37.714Z,52.71
2018-04-30T11:09:15.064Z,52.32
2018-04-30T11:11:48.316Z,51.94
2018-04-30T11:14:18.934Z,52.45
2018-04-30T11:16:50.833Z,53.49
2018-04-30T11:19:25.643Z,52.14
2018-04-30T11:22:06.650Z,51.07
2018-04-30T11:24:37.947Z,50.83
2018-04-30T11:27:09.014Z,50.42
2018-04-30T11:29:39.748Z,49.02
2018-04-30T11:32:12.533Z,47.81
2018-04-30T11:34:44.436Z,49.33
2018-04-30T11:37:46.029Z,48.48
2018-04-30T11:40:19.985Z,46.31
2018-04-30T11:42:54.849Z,45.24
2018-04-30T11:45:26.099Z,45.28
2018-04-30T11:48:01.697Z,43.89
2018-04-30T11:50:35.010Z,44.26
2018-04-30T11:53:11.138Z,42.58
2018-04-30T11:56:01.833Z,46.19
2018-04-30T11:58:52.494Z,44.51
2018-04-30T12:01:38.795Z,42.61
2018-04-30T12:04:13.095Z,41.35
2018-04-30T12:06:52.558Z,44.21
2018-04-30T12:09:23.626Z,45.76
2018-04-30T12:11:54.699Z,47.13
2018-04-30T12:14:29.382Z,49.77
2018-04-30T12:17:10.002Z,52.90
2018-04-30T12:19:41.828Z,53.71
2018-04-30T12:22:13.855Z,54.82
2018-04-30T12:24:45.852Z,56.01
2018-04-30T12:27:17.952Z,58.94
2018-04-30T12:29:53.376Z,59.88
2018-04-30T12:32:27.781Z,60.16
2018-04-30T12:35:03.340Z,61.03
2018-04-30T12:37:39.076Z,61.99
2018-04-30T12:40:10.687Z,61.82
2018-04-30T12:42:43.625Z,62.03
2018-04-30T12:45:18.248Z,60.73
2018-04-30T12:47:48.663Z,64.46
2018-04-30T12:50:23.776Z,67.84
2018-04-30T12:53:05.055Z,70.84
2018-04-30T12:55:44.293Z,73.47
2018-04-30T12:58:20.629Z,72.39
2018-04-30T13:00:52.811Z,72.35
2018-04-30T13:03:23.439Z,69.46
2018-04-30T13:05:55.593Z,67.20
2018-04-30T13:08:35.314Z,67.46
2018-04-30T13:11:08.838Z,65.52
2018-04-30T13:14:16.807Z,63.96
2018-04-30T13:16:50.130Z,61.33
2018-04-30T13:22:04.007Z,57.45
2018-04-30T13:24:34.313Z,58.94
2018-04-30T13:27:04.537Z,58.71
2018-04-30T13:29:36.858Z,57.35
2018-04-30T13:32:11.118Z,59.27
2018-04-30T13:34:41.571Z,59.23
2018-04-30T13:37:12.049Z,60.20
2018-04-30T13:39:42.217Z,60.14
2018-04-30T13:42:13.061Z,59.08
2018-04-30T13:44:44.129Z,56.90
2018-04-30T13:47:27.667Z,54.67
2018-04-30T13:50:04.982Z,53.78
2018-04-30T13:55:23.646Z,51.60
2018-04-30T13:57:55.494Z,50.55
2018-04-30T14:00:26.144Z,50.13
2018-04-30T14:03:05.847Z,49.51
2018-04-30T14:05:36.835Z,50.48
2018-04-30T14:08:07.851Z,50.79
2018-04-30T14:10:39.167Z,51.08
2018-04-30T14:13:10.978Z,51.86
2018-04-30T14:15:42.367Z,52.53
2018-04-30T14:18:18.584Z,52.92
2018-04-30T14:20:52.666Z,51.96
2018-04-30T14:23:23.538Z,50.13
2018-04-30T14:25:53.915Z,49.43
2018-04-30T14:28:25.810Z,47.47
2018-04-30T14:30:58.494Z,47.10
2018-04-30T14:33:29.540Z,45.66
2018-04-30T14:36:01.464Z,45.84
2018-04-30T14:38:34.539Z,46.11
2018-04-30T14:41:19.972Z,45.42
2018-04-30T14:44:01.110Z,47.68
2018-04-30T14:46:35.184Z,46.71
2018-04-30T14:49:09.068Z,46.79
2018-04-30T14:51:40.683Z,46.36
2018-04-30T14:54:11.466Z,45.71
2018-04-30T14:56:43.715Z,45.71
2018-04-30T14:59:19.877Z,46.59
2018-04-30T15:01:53.115Z,46.18
2018-04-30T15:04:30.851Z,47.47
2018-04-30T15:10:09.017Z,47.41
2018-04-30T15:12:40.625Z,47.96
2018-04-30T15:15:16.019Z,48.24
2018-04-30T15:17:47.284Z,46.46
2018-04-30T15:20:18.290Z,47.37
2018-04-30T15:22:48.972Z,46.36
2018-04-30T15:25:21.949Z,45.72
2018-04-30T15:27:53.278Z,45.31
2018-04-30T15:30:25.436Z,44.30
2018-04-30T15:33:01.965Z,44.11
2018-04-30T15:35:34.341Z,44.77
2018-04-30T15:38:16.522Z,43.79
2018-04-30T15:40:50.217Z,43.56
2018-04-30T15:43:20.530Z,44.01
2018-04-30T15:45:51.067Z,44.97
2018-04-30T15:48:26.579Z,43.61
2018-04-30T15:53:40.619Z,42.94
2018-04-30T15:56:11.090Z,42.16
2018-04-30T15:58:46.545Z,41.84
2018-04-30T16:01:18.161Z,42.25
2018-04-30T16:03:50.232Z,41.74
2018-04-30T16:06:21.193Z,41.92
2018-04-30T16:08:55.583Z,41.92
2018-04-30T16:11:26.724Z,42.80
2018-04-30T16:13:57.010Z,43.31
2018-04-30T16:16:28.463Z,43.42
2018-04-30T16:19:04.632Z,44.18
2018-04-30T16:21:37.476Z,44.01
2018-04-30T16:24:08.486Z,44.59
2018-04-30T16:26:39.154Z,45.37
2018-04-30T16:29:11.255Z,45.12
2018-04-30T16:31:59.137Z,44.50
2018-04-30T16:34:36.420Z,44.24
2018-04-30T16:37:07.804Z,44.13
2018-04-30T16:39:39.171Z,44.92
2018-04-30T16:42:10.596Z,44.30
2018-04-30T16:44:41.976Z,44.09
2018-04-30T16:47:12.635Z,44.76
2018-04-30T16:49:44.056Z,44.98
2018-04-30T16:52:15.324Z,45.43
2018-04-30T16:54:45.980Z,45.21
2018-04-30T16:57:20.011Z,45.85
2018-04-30T16:59:50.827Z,47.14
2018-04-30T17:02:22.822Z,46.86
2018-04-30T17:04:53.209Z,47.01
2018-04-30T17:07:26.271Z,47.32
2018-04-30T17:09:56.744Z,48.35
2018-04-30T17:12:26.927Z,50.91
2018-04-30T17:14:57.144Z,54.17
2018-04-30T17:17:33.610Z,54.54
2018-04-30T17:20:09.507Z,56.25
2018-04-30T17:22:40.294Z,55.25
2018-04-30T17:25:11.489Z,56.18
2018-04-30T17:27:43.219Z,55.75
2018-04-30T17:30:17.144Z,55.49
2018-04-30T17:32:47.614Z,55.30
2018-04-30T17:35:17.868Z,54.35
2018-04-30T17:37:49.387Z,53.83
2018-04-30T17:40:21.217Z,54.15
2018-04-30T17:43:01.618Z,54.05
2018-04-30T17:45:32.694Z,54.31
2018-04-30T17:48:03.964Z,53.57
2018-04-30T17:50:34.734Z,54.17
2018-04-30T17:53:44.767Z,53.46
2018-04-30T17:56:15.290Z,52.50
2018-04-30T17:58:45.896Z,50.23
2018-04-30T18:01:17.071Z,49.80
2018-04-30T18:03:50.787Z,50.23
2018-04-30T18:06:21.596Z,50.16
2018-04-30T18:08:53.408Z,50.05
2018-04-30T18:11:23.884Z,49.92
2018-04-30T18:13:54.217Z,49.88
2018-04-30T18:16:25.569Z,49.59
2018-04-30T18:18:57.439Z,50.10
2018-04-30T18:21:28.573Z,49.13
2018-04-30T18:26:41.362Z,48.53
2018-04-30T18:29:15.164Z,49.29
2018-04-30T18:31:46.192Z,49.01
2018-04-30T18:34:16.727Z,48.85
2018-04-30T18:36:49.559Z,48.85
2018-04-30T18:39:25.657Z,48.77
2018-04-30T18:42:01.733Z,48.95
2018-04-30T18:47:38.390Z,49.23
2018-04-30T18:50:31.499Z,49.75
2018-04-30T18:53:03.744Z,49.96
2018-04-30T18:55:37.196Z,49.92
2018-04-30T18:58:08.088Z,49.87
2018-04-30T19:00:45.101Z,50.27
2018-04-30T19:03:26.678Z,49.65
2018-04-30T19:06:03.310Z,49.92
2018-04-30T19:08:45.668Z,50.49
2018-04-30T19:11:17.152Z,50.11
2018-04-30T19:13:54.592Z,50.60
2018-04-30T19:16:28.237Z,51.54
2018-04-30T19:19:00.379Z,53.12
2018-04-30T19:21:31.468Z,54.40
2018-04-30T19:24:02.940Z,55.30
2018-04-30T19:26:33.318Z,55.80
2018-04-30T19:29:05.639Z,56.54
2018-04-30T19:31:36.443Z,58.22
2018-04-30T19:34:06.877Z,57.77
2018-04-30T19:36:38.868Z,59.37
2018-04-30T19:39:11.905Z,58.46
2018-04-30T19:41:44.638Z,58.44
2018-04-30T19:44:15.179Z,57.83
2018-04-30T19:46:49.424Z,57.29
2018-04-30T19:49:22.683Z,56.55
2018-04-30T19:51:53.941Z,56.36
2018-04-30T19:54:27.385Z,55.92
2018-04-30T19:57:07.211Z,55.56
2018-04-30T19:59:39.268Z,55.19
2018-04-30T20:02:11.780Z,55.76
2018-04-30T20:04:42.962Z,56.35
2018-04-30T20:07:13.748Z,57.72
2018-04-30T20:09:45.366Z,59.05
2018-04-30T20:12:17.252Z,59.45
2018-04-30T20:14:48.552Z,59.52
2018-04-30T20:17:18.941Z,59.49
2018-04-30T20:19:50.041Z,60.94
2018-04-30T20:22:21.068Z,62.60
2018-04-30T20:24:52.580Z,63.01
2018-04-30T20:27:23.204Z,62.89
2018-04-30T20:30:00.573Z,62.23
2018-04-30T20:32:33.343Z,62.75
2018-04-30T20:35:11.093Z,62.69
2018-04-30T20:37:50.659Z,61.88
2018-04-30T20:40:20.971Z,60.42
2018-04-30T20:42:52.995Z,59.19
2018-04-30T20:45:24.487Z,58.34
2018-04-30T20:47:56.067Z,57.93
2018-04-30T20:50:27.365Z,58.26
2018-04-30T20:52:57.882Z,58.10
2018-04-30T20:55:29.684Z,58.43
2018-04-30T20:58:01.507Z,58.14
2018-04-30T21:00:32.236Z,57.54
2018-04-30T21:03:02.592Z,57.03
2018-04-30T21:08:24.983Z,57.38
2018-04-30T21:10:55.705Z,57.12
2018-04-30T21:13:26.149Z,56.84
2018-04-30T21:15:56.780Z,57.07
2018-04-30T21:18:27.491Z,57.08
2018-04-30T21:20:58.042Z,58.03
2018-04-30T21:23:29.214Z,57.67
2018-04-30T21:26:00.175Z,58.00
2018-04-30T21:28:30.478Z,57.90
2018-04-30T21:31:01.418Z,58.18
2018-04-30T21:33:34.075Z,59.13
2018-04-30T21:36:04.687Z,59.34
2018-04-30T21:38:36.510Z,59.57
2018-04-30T21:41:06.486Z,60.12
2018-04-30T21:43:36.806Z,60.58
2018-04-30T21:46:07.730Z,60.27
2018-04-30T21:48:38.074Z,60.82
2018-04-30T21:51:08.731Z,61.51
2018-04-30T21:53:44.531Z,62.37
2018-04-30T21:56:14.721Z,62.60
2018-04-30T21:58:45.008Z,62.47
2018-04-30T22:01:15.616Z,62.21
2018-04-30T22:03:47.779Z,61.81
2018-04-30T22:06:19.923Z,61.52
2018-04-30T22:08:50.629Z,61.21
2018-04-30T22:11:21.446Z,61.44
2018-04-30T22:13:52.575Z,61.64
2018-04-30T22:16:23.228Z,61.31
2018-04-30T22:18:53.680Z,61.51
2018-04-30T22:21:25.180Z,61.48
2018-04-30T22:23:55.674Z,61.75
2018-04-30T22:26:26.287Z,62.15
2018-04-30T22:29:13.359Z,63.29
2018-04-30T22:31:44.663Z,64.07
2018-04-30T22:34:15.143Z,64.02
2018-04-30T22:36:46.124Z,63.57
2018-04-30T22:39:18.487Z,63.98
2018-04-30T22:41:49.769Z,63.78
2018-04-30T22:44:20.487Z,63.72
2018-04-30T22:46:53.585Z,64.15
2018-04-30T22:49:25.150Z,64.14
2018-04-30T22:51:57.136Z,64.27
2018-04-30T22:54:29.674Z,63.71
2018-04-30T22:57:00.287Z,63.55
2018-04-30T22:59:31.932Z,63.80
2018-04-30T23:02:07.739Z,63.46
2018-04-30T23:04:38.501Z,64.48
2018-04-30T23:07:10.283Z,64.38
2018-04-30T23:09:40.709Z,64.76
2018-04-30T23:12:11.244Z,65.09
2018-04-30T23:14:41.579Z,65.14
2018-04-30T23:17:14.245Z,65.61
2018-04-30T23:19:44.444Z,66.74
2018-04-30T23:22:16.734Z,66.45
2018-04-30T23:24:47.054Z,67.46
2018-04-30T23:27:17.438Z,67.25
2018-04-30T23:29:51.473Z,67.28
2018-04-30T23:32:22.883Z,67.46
2018-04-30T23:34:57.426Z,66.84
2018-04-30T23:37:28.298Z,67.77
2018-04-30T23:39:59.285Z,67.37
2018-04-30T23:42:35.160Z,67.50
2018-04-30T23:45:08.862Z,67.97
2018-04-30T23:47:39.378Z,68.89
2018-04-30T23:50:10.058Z,68.50
2018-04-30T23:52:42.254Z,69.18
2018-04-30T23:55:12.718Z,69.46
2018-04-30T23:57:45.627Z,69.52
